Time;durP1;ratioP1;P1;durP2;ratioP2;P2;SDS_P1;SDS_P2;PMS_P1;PMS_P2;Temp;Humidity;BMP_temperature;BMP_pressure;BME280_temperature;BME280_humidity;BME280_pressure;Samples;Min_cycle;Max_cycle;Signal;HPM_P1;HPM_P2
2022/09/02 00:03:35;;;;;;;4.93;2.10;;;;;;;;;;8485659;27;20043;-91
2022/09/02 00:07:38;;;;;;;3.80;1.80;;;;;;;;;;8487252;27;20446;-90
2022/09/02 00:11:42;;;;;;;4.22;1.80;;;;;;;;;;8490391;27;20402;-91
2022/09/02 00:15:47;;;;;;;2.80;1.63;;;;;;;;;;8482418;27;20046;-90
2022/09/02 00:19:49;;;;;;;4.78;2.03;;;;;;;;;;8496956;27;20047;-90
2022/09/02 00:23:52;;;;;;;4.95;2.40;;;;;;;;;;8496902;27;20474;-90
2022/09/02 00:27:54;;;;;;;3.53;2.15;;;;;;;;;;8496745;27;20047;-89
2022/09/02 00:31:58;;;;;;;4.25;2.20;;;;;;;;;;8496682;27;20070;-90
2022/09/02 00:36:01;;;;;;;4.45;2.10;;;;;;;;;;8496392;27;20045;-91
2022/09/02 00:40:06;;;;;;;5.85;2.72;;;;;;;;;;8496671;27;20402;-90
2022/09/02 00:44:11;;;;;;;4.93;2.30;;;;;;;;;;8496444;27;20046;-90
2022/09/02 00:48:15;;;;;;;6.50;2.38;;;;;;;;;;8490229;27;20042;-90
2022/09/02 00:52:23;;;;;;;3.33;2.03;;;;;;;;;;8489601;27;20059;-90
2022/09/02 00:56:29;;;;;;;3.42;2.15;;;;;;;;;;8494659;28;20039;-91
2022/09/02 01:00:41;;;;;;;3.33;2.03;;;;;;;;;;8490202;28;20054;-90
2022/09/02 01:04:47;;;;;;;3.40;2.17;;;;;;;;;;8492788;28;20569;-91
2022/09/02 01:08:59;;;;;;;3.55;2.20;;;;;;;;;;8496147;28;20047;-90
2022/09/02 01:13:05;;;;;;;4.40;2.47;;;;;;;;;;8496569;28;20039;-90
2022/09/02 01:17:11;;;;;;;3.08;2.03;;;;;;;;;;8495999;28;20051;-90
2022/09/02 01:21:16;;;;;;;7.22;2.03;;;;;;;;;;8495794;28;20390;-90
2022/09/02 01:25:23;;;;;;;3.65;1.90;;;;;;;;;;8495868;28;20047;-90
2022/09/02 01:29:27;;;;;;;3.65;2.15;;;;;;;;;;8495755;28;20486;-90
2022/09/02 01:33:30;;;;;;;4.13;2.00;;;;;;;;;;8495502;28;20043;-90
2022/09/02 01:37:33;;;;;;;5.05;1.92;;;;;;;;;;8495469;28;20047;-90
2022/09/02 01:41:37;;;;;;;4.07;2.00;;;;;;;;;;8495580;28;20046;-90
2022/09/02 01:45:42;;;;;;;2.10;1.80;;;;;;;;;;8495586;28;20035;-90
2022/09/02 01:49:45;;;;;;;4.20;1.70;;;;;;;;;;8495009;28;20398;-90
2022/09/02 01:53:48;;;;;;;3.78;1.90;;;;;;;;;;8495434;28;20057;-91
2022/09/02 01:57:52;;;;;;;4.75;2.00;;;;;;;;;;8492275;27;20409;-90
2022/09/02 02:01:55;;;;;;;3.83;1.70;;;;;;;;;;8486641;27;20043;-90
2022/09/02 02:05:57;;;;;;;2.83;1.95;;;;;;;;;;8501207;27;20051;-90
2022/09/02 02:10:00;;;;;;;6.28;1.90;;;;;;;;;;8499233;27;20039;-90
2022/09/02 02:14:05;;;;;;;2.53;1.77;;;;;;;;;;8500867;27;20121;-90
2022/09/02 02:18:07;;;;;;;3.03;1.88;;;;;;;;;;8496745;27;20440;-90
2022/09/02 02:22:10;;;;;;;4.05;2.00;;;;;;;;;;8500654;27;20483;-90
2022/09/02 02:26:13;;;;;;;4.65;2.35;;;;;;;;;;8500631;27;20043;-91
2022/09/02 02:30:19;;;;;;;4.03;2.53;;;;;;;;;;8500475;27;20445;-91
2022/09/02 02:34:21;;;;;;;4.97;2.10;;;;;;;;;;8496375;27;20047;-90
2022/09/02 02:38:24;;;;;;;4.95;2.20;;;;;;;;;;8500289;27;20043;-90
2022/09/02 02:42:26;;;;;;;7.03;3.30;;;;;;;;;;8500047;27;20485;-90
2022/09/02 02:46:34;;;;;;;4.72;2.83;;;;;;;;;;8500082;27;20036;-90
2022/09/02 02:50:36;;;;;;;8.48;4.47;;;;;;;;;;8499701;27;20086;-90
2022/09/02 02:54:39;;;;;;;8.38;4.60;;;;;;;;;;8499568;27;20043;-91
2022/09/02 02:58:41;;;;;;;7.63;4.13;;;;;;;;;;8499707;27;20043;-90
2022/09/02 03:02:45;;;;;;;4.47;2.33;;;;;;;;;;8499516;27;20047;-90
2022/09/02 03:06:48;;;;;;;5.22;2.80;;;;;;;;;;8499465;27;20509;-90
2022/09/02 03:10:52;;;;;;;5.28;2.35;;;;;;;;;;8499371;27;20047;-90
2022/09/02 03:14:55;;;;;;;5.80;1.83;;;;;;;;;;8499092;27;20047;-90
2022/09/02 03:19:02;;;;;;;2.47;1.90;;;;;;;;;;8498819;27;20039;-90
2022/09/02 03:23:04;;;;;;;2.47;1.95;;;;;;;;;;8492669;27;20042;-91
2022/09/02 03:27:07;;;;;;;2.63;1.98;;;;;;;;;;8493958;27;20070;-90
2022/09/02 03:31:15;;;;;;;8.70;2.30;;;;;;;;;;8498637;27;20163;-90
2022/09/02 03:35:21;;;;;;;2.88;1.88;;;;;;;;;;8489075;27;20047;-90
2022/09/02 03:39:23;;;;;;;6.15;2.35;;;;;;;;;;8496584;27;20039;-90
2022/09/02 03:43:26;;;;;;;4.68;2.00;;;;;;;;;;8498210;27;20405;-91
2022/09/02 03:47:28;;;;;;;5.05;1.95;;;;;;;;;;8496192;27;20043;-90
2022/09/02 03:51:33;;;;;;;6.18;2.05;;;;;;;;;;8497676;27;20051;-90
2022/09/02 03:55:37;;;;;;;4.68;2.30;;;;;;;;;;8497718;27;20546;-90
2022/09/02 03:59:40;;;;;;;6.57;2.70;;;;;;;;;;8497528;27;20039;-90
2022/09/02 04:03:43;;;;;;;4.72;2.60;;;;;;;;;;8495926;27;20107;-90
2022/09/02 04:07:50;;;;;;;6.13;3.28;;;;;;;;;;8484415;27;20540;-92
2022/09/02 04:11:52;;;;;;;6.97;3.97;;;;;;;;;;8484516;27;20058;-90
2022/09/02 04:15:57;;;;;;;9.35;6.43;;;;;;;;;;8485560;27;20051;-91
2022/09/02 04:20:00;;;;;;;13.00;6.75;;;;;;;;;;8463555;27;20053;-92
2022/09/02 04:24:04;;;;;;;12.48;6.13;;;;;;;;;;8472452;27;20069;-91
2022/09/02 04:28:11;;;;;;;6.55;4.30;;;;;;;;;;8452787;27;20058;-90
2022/09/02 04:32:15;;;;;;;12.10;5.00;;;;;;;;;;8469571;27;20451;-91
2022/09/02 04:36:20;;;;;;;10.65;4.75;;;;;;;;;;8496712;27;20069;-90
2022/09/02 04:40:24;;;;;;;10.15;4.43;;;;;;;;;;8496903;27;20092;-92
2022/09/02 04:44:38;;;;;;;9.65;4.93;;;;;;;;;;8495231;27;20462;-91
2022/09/02 04:48:59;;;;;;;10.55;4.40;;;;;;;;;;8486401;27;20039;-92
2022/09/02 04:53:13;;;;;;;9.50;4.47;;;;;;;;;;8487473;27;20089;-91
2022/09/02 04:57:37;;;;;;;9.52;4.78;;;;;;;;;;8495111;28;20039;-92
2022/09/02 05:01:55;;;;;;;10.45;9.27;;;;;;;;;;8492750;28;20482;-89
2022/09/02 05:06:14;;;;;;;9.77;3.55;;;;;;;;;;8496236;28;20059;-92
2022/09/02 05:10:27;;;;;;;12.00;8.85;;;;;;;;;;8496215;28;20050;-91
2022/09/02 05:14:37;;;;;;;8.20;4.00;;;;;;;;;;8491462;28;20159;-93
2022/09/02 05:18:39;;;;;;;8.65;3.85;;;;;;;;;;8492221;28;20387;-92
2022/09/02 05:22:42;;;;;;;10.02;5.03;;;;;;;;;;8496125;28;20035;-91
2022/09/02 05:26:45;;;;;;;8.13;4.10;;;;;;;;;;8489412;28;20047;-91
2022/09/02 05:30:49;;;;;;;6.53;3.63;;;;;;;;;;8495917;28;20051;-91
2022/09/02 05:34:51;;;;;;;6.18;4.10;;;;;;;;;;8488893;27;20051;-92
2022/09/02 05:38:54;;;;;;;8.88;4.32;;;;;;;;;;8502562;27;20118;-91
2022/09/02 05:42:57;;;;;;;8.73;4.97;;;;;;;;;;8502448;27;20091;-90
2022/09/02 05:47:01;;;;;;;9.52;2.90;;;;;;;;;;8502345;27;20043;-91
2022/09/02 05:51:05;;;;;;;12.63;2.90;;;;;;;;;;8500930;27;20119;-91
2022/09/02 05:55:08;;;;;;;9.43;3.35;;;;;;;;;;8501760;27;20122;-91
2022/09/02 05:59:11;;;;;;;9.48;3.47;;;;;;;;;;8501682;27;20379;-91
2022/09/02 06:03:17;;;;;;;8.60;3.28;;;;;;;;;;8494127;27;20039;-91
2022/09/02 06:07:21;;;;;;;14.90;7.75;;;;;;;;;;8498488;27;20046;-91
2022/09/02 06:11:24;;;;;;;24.55;11.60;;;;;;;;;;8501133;27;20043;-91
2022/09/02 06:15:29;;;;;;;17.42;6.07;;;;;;;;;;8499758;27;20039;-93
2022/09/02 06:19:34;;;;;;;17.88;8.15;;;;;;;;;;8501435;27;20081;-89
2022/09/02 06:23:38;;;;;;;10.13;3.88;;;;;;;;;;8500698;27;20066;-91
2022/09/02 06:27:41;;;;;;;14.57;3.50;;;;;;;;;;8500653;27;20065;-90
2022/09/02 06:31:45;;;;;;;14.15;2.83;;;;;;;;;;8500369;27;20043;-90
2022/09/02 06:35:53;;;;;;;11.90;2.70;;;;;;;;;;8484019;27;20116;-91
2022/09/02 06:39:55;;;;;;;8.23;2.30;;;;;;;;;;8494421;27;20043;-90
2022/09/02 06:43:59;;;;;;;6.32;2.03;;;;;;;;;;8499438;27;20039;-92
2022/09/02 06:48:02;;;;;;;3.70;2.00;;;;;;;;;;8499491;27;20409;-91
2022/09/02 06:52:07;;;;;;;3.35;1.65;;;;;;;;;;8498255;27;20418;-91
2022/09/02 06:56:10;;;;;;;2.00;1.50;;;;;;;;;;8499597;27;20424;-91
2022/09/02 07:00:15;;;;;;;2.00;1.27;;;;;;;;;;8481558;27;20042;-92
2022/09/02 07:08:41;;;;;;;1.75;1.35;;;;;;;;;;8495563;27;20490;-90
2022/09/02 07:12:44;;;;;;;2.72;1.58;;;;;;;;;;8499358;27;20050;-90
2022/09/02 07:16:50;;;;;;;2.55;1.60;;;;;;;;;;8499224;27;20082;-90
2022/09/02 07:20:53;;;;;;;3.22;2.15;;;;;;;;;;8499099;27;20107;-90
2022/09/02 07:24:57;;;;;;;3.50;1.63;;;;;;;;;;8498987;27;20130;-90
2022/09/02 07:29:00;;;;;;;3.92;1.30;;;;;;;;;;8498665;27;20039;-91
2022/09/02 07:33:03;;;;;;;3.65;1.83;;;;;;;;;;8498695;27;20096;-91
2022/09/02 07:37:06;;;;;;;3.47;2.08;;;;;;;;;;8498491;27;20078;-91
2022/09/02 07:41:12;;;;;;;2.78;1.10;;;;;;;;;;8498714;27;20050;-90
2022/09/02 07:45:14;;;;;;;1.42;1.00;;;;;;;;;;8492175;27;20050;-90
2022/09/02 07:49:19;;;;;;;1.13;0.90;;;;;;;;;;8498127;27;20039;-91
2022/09/02 07:53:22;;;;;;;2.38;1.30;;;;;;;;;;8497883;27;20112;-91
2022/09/02 07:57:26;;;;;;;1.95;1.05;;;;;;;;;;8497306;27;20090;-93
2022/09/02 08:01:29;;;;;;;3.88;1.80;;;;;;;;;;8497776;27;20039;-90
2022/09/02 08:05:33;;;;;;;3.65;0.80;;;;;;;;;;8491101;27;20039;-90
2022/09/02 08:09:35;;;;;;;0.95;0.95;;;;;;;;;;8497231;27;20043;-89
2022/09/02 08:13:39;;;;;;;3.80;2.42;;;;;;;;;;8483245;27;20049;-91
2022/09/02 08:17:43;;;;;;;3.13;1.05;;;;;;;;;;8481218;27;20040;-89
2022/09/02 08:21:45;;;;;;;2.75;0.98;;;;;;;;;;8488681;27;20047;-88
2022/09/02 08:25:48;;;;;;;1.80;1.10;;;;;;;;;;8483066;27;20047;-89
2022/09/02 08:29:52;;;;;;;0.60;0.60;;;;;;;;;;8495615;27;20054;-89
2022/09/02 08:33:54;;;;;;;3.38;1.63;;;;;;;;;;8494470;27;20092;-89
2022/09/02 08:37:58;;;;;;;6.43;3.17;;;;;;;;;;8489011;27;20043;-89
2022/09/02 08:42:09;;;;;;;8.23;1.80;;;;;;;;;;8480366;27;20082;-89
2022/09/02 08:46:16;;;;;;;8.15;1.90;;;;;;;;;;8488806;27;20070;-90
2022/09/02 08:50:20;;;;;;;2.00;1.00;;;;;;;;;;8493411;27;20096;-89
2022/09/02 08:54:28;;;;;;;2.53;1.10;;;;;;;;;;8494475;27;20487;-89
2022/09/02 08:58:38;;;;;;;4.53;2.53;;;;;;;;;;8494311;28;20497;-89
2022/09/02 09:02:55;;;;;;;3.80;1.93;;;;;;;;;;8494324;28;20047;-90
2022/09/02 09:07:16;;;;;;;15.38;8.10;;;;;;;;;;8496844;27;20054;-89
2022/09/02 09:11:26;;;;;;;14.40;7.63;;;;;;;;;;8494222;27;20410;-89
2022/09/02 09:15:36;;;;;;;17.35;10.18;;;;;;;;;;8483244;27;20127;-89
2022/09/02 09:19:48;;;;;;;5.50;2.65;;;;;;;;;;8483894;27;20122;-90
2022/09/02 09:23:54;;;;;;;4.90;2.10;;;;;;;;;;8489739;27;20104;-89
2022/09/02 09:27:56;;;;;;;4.53;1.73;;;;;;;;;;8493537;27;20059;-90
2022/09/02 09:32:00;;;;;;;5.65;2.97;;;;;;;;;;8496873;27;20051;-94
2022/09/02 09:36:06;;;;;;;3.22;2.05;;;;;;;;;;8483754;27;20036;-90
2022/09/02 09:40:27;;;;;;;2.08;0.98;;;;;;;;;;8488926;27;20066;-89
2022/09/02 09:44:38;;;;;;;6.45;2.60;;;;;;;;;;8491075;27;20510;-90
2022/09/02 09:48:50;;;;;;;2.28;1.00;;;;;;;;;;8488442;27;20048;-90
2022/09/02 09:52:54;;;;;;;10.73;4.78;;;;;;;;;;8493101;27;20055;-90
2022/09/02 09:57:14;;;;;;;4.25;2.15;;;;;;;;;;8484308;27;20045;-91
2022/09/02 10:01:20;;;;;;;3.17;1.30;;;;;;;;;;8490849;27;20044;-89
2022/09/02 10:05:35;;;;;;;1.00;0.75;;;;;;;;;;8492389;27;20050;-90
2022/09/02 10:09:39;;;;;;;1.60;1.08;;;;;;;;;;8489316;27;20130;-91
2022/09/02 10:13:43;;;;;;;0.57;0.57;;;;;;;;;;8490505;27;20043;-90
2022/09/02 10:17:53;;;;;;;1.17;0.73;;;;;;;;;;8492056;27;20039;-90
2022/09/02 10:22:25;;;;;;;1.17;0.80;;;;;;;;;;8491842;27;20140;-90
2022/09/02 10:26:37;;;;;;;3.70;0.70;;;;;;;;;;8492046;27;20050;-89
2022/09/02 10:30:45;;;;;;;1.00;0.90;;;;;;;;;;8487800;27;20039;-91
2022/09/02 10:34:58;;;;;;;1.25;1.05;;;;;;;;;;8497545;27;20051;-91
2022/09/02 10:39:11;;;;;;;4.38;1.20;;;;;;;;;;8499268;27;20047;-89
2022/09/02 10:43:33;;;;;;;3.72;1.10;;;;;;;;;;8500360;27;20402;-92
2022/09/02 10:47:37;;;;;;;1.85;1.02;;;;;;;;;;8494207;27;20043;-90
2022/09/02 10:51:48;;;;;;;2.35;1.08;;;;;;;;;;8499718;27;20039;-89
2022/09/02 10:55:58;;;;;;;2.08;1.20;;;;;;;;;;8494195;27;20039;-88
2022/09/02 11:00:07;;;;;;;2.38;1.05;;;;;;;;;;8500158;27;20039;-90
2022/09/02 11:04:18;;;;;;;1.65;1.17;;;;;;;;;;8499811;27;20050;-91
2022/09/02 11:08:25;;;;;;;2.20;1.10;;;;;;;;;;8499522;27;20046;-89
2022/09/02 11:12:32;;;;;;;3.83;1.20;;;;;;;;;;8495678;27;20036;-92
2022/09/02 11:16:40;;;;;;;0.80;0.80;;;;;;;;;;8499410;27;20047;-91
2022/09/02 11:20:49;;;;;;;6.93;1.20;;;;;;;;;;8499065;27;20486;-93
2022/09/02 11:24:59;;;;;;;1.33;1.00;;;;;;;;;;8499131;27;20054;-89
2022/09/02 11:29:07;;;;;;;2.05;0.90;;;;;;;;;;8499070;27;20084;-92
2022/09/02 11:33:17;;;;;;;0.98;0.88;;;;;;;;;;8497812;27;20054;-91
2022/09/02 11:37:32;;;;;;;5.28;1.10;;;;;;;;;;8498391;27;20049;-90
2022/09/02 11:41:53;;;;;;;1.90;1.00;;;;;;;;;;8498563;27;20042;-88
2022/09/02 11:46:35;;;;;;;1.58;0.88;;;;;;;;;;8498405;27;20043;-90
2022/09/02 11:50:53;;;;;;;3.55;1.00;;;;;;;;;;8467440;27;20046;-88
2022/09/02 11:55:06;;;;;;;4.10;1.05;;;;;;;;;;8486794;27;20997;-89
2022/09/02 11:59:19;;;;;;;3.70;1.38;;;;;;;;;;8488024;27;20042;-88
2022/09/02 12:03:28;;;;;;;1.00;0.90;;;;;;;;;;8491240;27;20076;-88
2022/09/02 12:07:47;;;;;;;1.90;1.02;;;;;;;;;;8484119;27;20047;-90
2022/09/02 12:11:53;;;;;;;3.60;1.23;;;;;;;;;;8489081;27;20108;-89
2022/09/02 12:16:30;;;;;;;4.13;1.13;;;;;;;;;;8471952;27;20088;-89
2022/09/02 12:21:04;;;;;;;1.67;0.93;;;;;;;;;;8482763;27;20414;-89
2022/09/02 12:25:41;;;;;;;1.15;1.02;;;;;;;;;;8422809;27;20107;-89
2022/09/02 12:29:44;;;;;;;1.45;1.10;;;;;;;;;;8475622;27;20444;-90
2022/09/02 12:33:50;;;;;;;2.05;1.10;;;;;;;;;;8473100;27;20048;-89
2022/09/02 12:37:55;;;;;;;2.38;1.80;;;;;;;;;;8480826;27;20101;-93
2022/09/02 12:42:13;;;;;;;1.63;1.15;;;;;;;;;;8485174;27;20125;-89
2022/09/02 12:46:27;;;;;;;1.55;1.00;;;;;;;;;;8477923;27;20059;-93
2022/09/02 12:50:34;;;;;;;3.58;1.05;;;;;;;;;;8486256;27;20059;-89
2022/09/02 12:54:47;;;;;;;1.60;1.00;;;;;;;;;;8481260;27;20047;-92
2022/09/02 12:58:56;;;;;;;1.77;1.10;;;;;;;;;;8482915;28;20043;-89
2022/09/02 13:03:15;;;;;;;2.72;1.10;;;;;;;;;;8491995;28;20051;-89
2022/09/02 13:07:48;;;;;;;3.50;0.98;;;;;;;;;;8487906;28;20552;-89
2022/09/02 13:12:19;;;;;;;1.10;1.00;;;;;;;;;;8487809;28;20082;-91
2022/09/02 13:16:31;;;;;;;;;;;;;;;;;;8484690;28;20395;-90
2022/09/02 13:21:05;;;;;;;1.10;1.00;;;;;;;;;;8488312;28;20472;-90
2022/09/02 13:25:50;;;;;;;1.25;1.00;;;;;;;;;;8471781;28;20043;-92
2022/09/02 13:30:16;;;;;;;1.30;0.80;;;;;;;;;;8478843;28;20088;-88
2022/09/02 13:34:21;;;;;;;1.25;0.80;;;;;;;;;;8480676;28;20039;-89
2022/09/02 13:38:25;;;;;;;2.72;0.93;;;;;;;;;;8479497;28;20039;-88
2022/09/02 13:42:29;;;;;;;3.17;1.20;;;;;;;;;;8478102;28;20051;-88
2022/09/02 13:46:32;;;;;;;1.08;0.80;;;;;;;;;;8481744;28;20414;-90
2022/09/02 13:50:42;;;;;;;1.85;0.93;;;;;;;;;;8472841;28;20047;-90
2022/09/02 13:54:51;;;;;;;3.25;1.50;;;;;;;;;;8479602;27;20099;-89
2022/09/02 13:58:59;;;;;;;2.03;1.00;;;;;;;;;;8470719;27;20052;-89
2022/09/02 14:03:11;;;;;;;2.47;1.08;;;;;;;;;;8477586;27;20055;-90
2022/09/02 14:07:24;;;;;;;2.33;0.90;;;;;;;;;;8482045;27;20054;-89
2022/09/02 14:11:34;;;;;;;2.15;1.10;;;;;;;;;;8483394;27;20036;-89
2022/09/02 14:15:38;;;;;;;2.40;1.00;;;;;;;;;;8488752;27;20044;-90
2022/09/02 14:19:47;;;;;;;1.58;1.00;;;;;;;;;;8495181;27;20046;-88
2022/09/02 14:23:56;;;;;;;0.88;0.80;;;;;;;;;;8489171;27;20047;-89
2022/09/02 14:28:04;;;;;;;1.77;1.00;;;;;;;;;;8491093;27;20051;-90
2022/09/02 14:32:13;;;;;;;2.17;1.00;;;;;;;;;;8486843;27;20088;-89
2022/09/02 14:36:33;;;;;;;2.92;1.33;;;;;;;;;;8484024;27;20963;-89
2022/09/02 14:40:41;;;;;;;2.28;1.15;;;;;;;;;;8482939;27;20075;-93
2022/09/02 14:44:47;;;;;;;22.98;7.85;;;;;;;;;;8481079;27;20071;-90
2022/09/02 14:48:54;;;;;;;16.65;6.63;;;;;;;;;;8484398;27;20043;-89
2022/09/02 14:53:02;;;;;;;12.70;2.20;;;;;;;;;;8476168;27;20052;-89
2022/09/02 14:57:21;;;;;;;2.90;1.40;;;;;;;;;;8476704;27;20043;-89
2022/09/02 15:01:23;;;;;;;5.72;2.40;;;;;;;;;;8488131;27;20455;-88
2022/09/02 15:05:26;;;;;;;7.13;2.88;;;;;;;;;;8475114;27;20054;-88
2022/09/02 15:09:28;;;;;;;1.15;1.05;;;;;;;;;;8477835;27;20498;-91
2022/09/02 15:13:33;;;;;;;12.60;6.95;;;;;;;;;;8482153;27;20051;-89
2022/09/02 15:17:36;;;;;;;2.35;1.60;;;;;;;;;;8488516;27;20146;-89
2022/09/02 15:21:39;;;;;;;4.70;2.38;;;;;;;;;;8479403;27;20383;-89
2022/09/02 15:25:41;;;;;;;17.10;6.47;;;;;;;;;;8497403;27;20122;-89
2022/09/02 15:29:45;;;;;;;1.85;1.38;;;;;;;;;;8498546;27;20043;-91
2022/09/02 15:33:51;;;;;;;1.10;1.00;;;;;;;;;;8498619;27;20047;-88
2022/09/02 15:37:54;;;;;;;10.27;6.63;;;;;;;;;;8497233;27;20040;-75
2022/09/02 15:41:57;;;;;;;4.10;2.33;;;;;;;;;;8495199;27;20044;-84
2022/09/02 15:46:01;;;;;;;4.05;1.80;;;;;;;;;;8478147;27;20491;-76
2022/09/02 15:50:04;;;;;;;4.53;1.67;;;;;;;;;;8479022;27;20035;-76
2022/09/02 15:54:10;;;;;;;5.63;2.15;;;;;;;;;;8474773;27;20914;-85
2022/09/02 15:58:12;;;;;;;2.38;1.50;;;;;;;;;;8478819;27;20043;-77
2022/09/02 16:02:16;;;;;;;5.05;2.45;;;;;;;;;;8492935;27;20493;-76
2022/09/02 16:06:19;;;;;;;6.38;3.05;;;;;;;;;;8497580;27;20069;-76
2022/09/02 16:10:22;;;;;;;11.50;6.03;;;;;;;;;;8483224;27;20555;-85
2022/09/02 16:14:25;;;;;;;8.18;3.22;;;;;;;;;;8487766;27;20039;-76
2022/09/02 16:18:29;;;;;;;7.75;3.00;;;;;;;;;;8487657;27;20055;-76
2022/09/02 16:22:31;;;;;;;6.93;3.60;;;;;;;;;;8485720;27;20047;-76
2022/09/02 16:26:35;;;;;;;4.68;4.18;;;;;;;;;;8490228;27;20104;-76
2022/09/02 16:30:38;;;;;;;6.45;4.05;;;;;;;;;;8490703;27;20043;-76
2022/09/02 16:34:45;;;;;;;4.40;2.85;;;;;;;;;;8477553;27;20049;-85
2022/09/02 16:38:47;;;;;;;5.57;3.58;;;;;;;;;;8476776;27;20079;-76
2022/09/02 16:42:50;;;;;;;3.40;2.38;;;;;;;;;;8477808;27;20060;-76
2022/09/02 16:46:54;;;;;;;3.00;1.90;;;;;;;;;;8469532;27;20057;-76
2022/09/02 16:51:02;;;;;;;1.60;1.50;;;;;;;;;;8472720;27;20050;-83
2022/09/02 16:55:05;;;;;;;4.10;1.85;;;;;;;;;;8484629;27;20047;-76
2022/09/02 16:59:10;;;;;;;2.42;1.40;;;;;;;;;;8483667;27;20058;-76
2022/09/02 17:03:13;;;;;;;4.07;1.30;;;;;;;;;;8476021;28;20039;-76
2022/09/02 17:07:17;;;;;;;1.55;1.20;;;;;;;;;;8483294;28;20594;-76
2022/09/02 17:11:29;;;;;;;2.97;1.40;;;;;;;;;;8478601;28;20057;-76
2022/09/02 17:15:44;;;;;;;19.45;11.20;;;;;;;;;;8481004;28;20130;-76
2022/09/02 17:19:58;;;;;;;8.65;4.00;;;;;;;;;;8487754;28;20111;-76
2022/09/02 17:24:14;;;;;;;25.02;8.50;;;;;;;;;;8439706;28;20078;-76
2022/09/02 17:28:28;;;;;;;22.08;10.02;;;;;;;;;;8478503;27;20039;-76
2022/09/02 17:32:44;;;;;;;18.17;7.72;;;;;;;;;;8449220;27;20042;-76
2022/09/02 17:36:56;;;;;;;6.75;3.47;;;;;;;;;;8475508;27;20080;-76
2022/09/02 17:45:37;;;;;;;13.55;6.18;;;;;;;;;;8500618;27;20051;-76
2022/09/02 17:49:54;;;;;;;7.90;3.67;;;;;;;;;;8501473;27;20039;-77
2022/09/02 17:54:06;;;;;;;13.20;7.72;;;;;;;;;;8425177;28;20048;-76
2022/09/02 17:58:27;;;;;;;10.02;5.10;;;;;;;;;;8433564;28;20044;-76
2022/09/02 18:02:48;;;;;;;7.18;4.03;;;;;;;;;;8422038;28;20048;-76
2022/09/02 18:07:16;;;;;;;13.18;7.03;;;;;;;;;;8428293;28;20094;-76
2022/09/02 18:11:31;;;;;;;6.45;3.97;;;;;;;;;;8432079;28;20040;-76
2022/09/02 18:15:57;;;;;;;6.68;2.80;;;;;;;;;;8429371;28;20044;-77
2022/09/02 18:20:15;;;;;;;4.95;2.95;;;;;;;;;;8428159;28;20537;-76
2022/09/02 18:24:38;;;;;;;6.97;3.90;;;;;;;;;;8433365;28;20544;-76
2022/09/02 18:29:00;;;;;;;7.72;4.65;;;;;;;;;;8431158;28;20081;-76
2022/09/02 18:33:35;;;;;;;7.32;2.60;;;;;;;;;;8420422;28;20044;-76
2022/09/02 18:37:54;;;;;;;;;;;;;;;;;;8429997;28;20036;-76
2022/09/02 18:42:35;;;;;;;3.88;1.90;;;;;;;;;;8431591;28;19920;-76
2022/09/02 18:46:54;;;;;;;3.55;1.98;;;;;;;;;;8428834;28;20461;-77
2022/09/02 18:51:26;;;;;;;4.18;1.90;;;;;;;;;;8445896;27;20059;-76
2022/09/02 18:55:47;;;;;;;3.33;2.28;;;;;;;;;;8495311;27;20043;-75
2022/09/02 19:00:02;;;;;;;4.68;2.25;;;;;;;;;;8496151;27;20035;-76
2022/09/02 19:04:04;;;;;;;3.35;1.88;;;;;;;;;;8499523;27;20051;-78
2022/09/02 19:12:39;;;;;;;3.78;2.50;;;;;;;;;;8494268;27;20096;-76
2022/09/02 19:16:41;;;;;;;4.68;2.58;;;;;;;;;;8490909;27;20046;-76
2022/09/02 19:20:44;;;;;;;6.68;2.83;;;;;;;;;;8490028;27;20658;-76
2022/09/02 19:25:00;;;;;;;7.20;3.13;;;;;;;;;;8492888;27;20057;-76
2022/09/02 19:29:03;;;;;;;6.25;2.92;;;;;;;;;;8498592;27;20112;-86
2022/09/02 19:33:09;;;;;;;6.20;3.30;;;;;;;;;;8499230;27;20039;-77
2022/09/02 19:37:14;;;;;;;5.10;2.90;;;;;;;;;;8498393;27;20047;-76
2022/09/02 19:41:18;;;;;;;3.85;2.80;;;;;;;;;;8498124;27;20126;-76
2022/09/02 19:45:22;;;;;;;6.60;3.30;;;;;;;;;;8498193;27;20427;-76
2022/09/02 19:49:25;;;;;;;5.75;2.80;;;;;;;;;;8495344;27;20086;-76
2022/09/02 19:53:28;;;;;;;6.28;2.88;;;;;;;;;;8490035;27;20062;-76
2022/09/02 19:57:33;;;;;;;5.45;2.90;;;;;;;;;;8498243;27;20401;-76
2022/09/02 20:01:35;;;;;;;5.43;2.90;;;;;;;;;;8497469;27;20040;-77
2022/09/02 20:05:39;;;;;;;5.60;2.60;;;;;;;;;;8498022;27;20043;-76
2022/09/02 20:09:41;;;;;;;4.65;2.88;;;;;;;;;;8498155;27;20459;-76
2022/09/02 20:13:48;;;;;;;5.53;3.20;;;;;;;;;;8497635;27;20046;-76
2022/09/02 20:17:50;;;;;;;7.50;3.13;;;;;;;;;;8495060;27;20107;-76
2022/09/02 20:21:52;;;;;;;8.13;3.70;;;;;;;;;;8494322;27;20379;-76
2022/09/02 20:26:11;;;;;;;10.02;5.07;;;;;;;;;;8497434;27;20047;-76
2022/09/02 20:30:17;;;;;;;9.65;4.60;;;;;;;;;;8491113;27;20050;-76
2022/09/02 20:34:37;;;;;;;8.27;3.85;;;;;;;;;;8491705;27;20059;-76
2022/09/02 20:39:04;;;;;;;7.93;3.40;;;;;;;;;;8496577;27;20050;-76
2022/09/02 20:43:40;;;;;;;5.53;3.00;;;;;;;;;;8496931;27;20066;-76
2022/09/02 20:47:59;;;;;;;7.80;2.85;;;;;;;;;;8486148;27;20556;-76
2022/09/02 20:52:07;;;;;;;5.03;2.95;;;;;;;;;;8496199;27;20533;-75
2022/09/02 20:56:21;;;;;;;9.20;3.10;;;;;;;;;;8496722;27;20051;-76
2022/09/02 21:00:23;;;;;;;5.18;3.10;;;;;;;;;;8496528;27;20051;-75
2022/09/02 21:04:37;;;;;;;6.53;3.10;;;;;;;;;;8496302;27;20088;-75
2022/09/02 21:08:47;;;;;;;6.97;3.58;;;;;;;;;;8478133;28;20127;-76
2022/09/02 21:12:54;;;;;;;7.75;4.25;;;;;;;;;;8495939;28;20135;-76
2022/09/02 21:17:03;;;;;;;9.88;4.35;;;;;;;;;;8496234;28;20380;-79
2022/09/02 21:21:17;;;;;;;7.93;4.63;;;;;;;;;;8495882;28;20047;-76
2022/09/02 21:25:25;;;;;;;8.15;4.20;;;;;;;;;;8496330;28;20550;-75
2022/09/02 21:29:35;;;;;;;8.32;3.88;;;;;;;;;;8483912;28;20050;-76
2022/09/02 21:33:38;;;;;;;9.93;3.42;;;;;;;;;;8495722;28;20452;-76
2022/09/02 21:37:45;;;;;;;6.43;3.78;;;;;;;;;;8495380;28;20483;-76
2022/09/02 21:41:56;;;;;;;6.63;3.40;;;;;;;;;;8496061;28;20094;-77
2022/09/02 21:46:08;;;;;;;7.80;3.88;;;;;;;;;;8495460;28;20039;-77
2022/09/02 21:50:16;;;;;;;4.68;3.03;;;;;;;;;;8495206;28;20084;-77
2022/09/02 21:54:34;;;;;;;4.90;2.97;;;;;;;;;;8495780;28;20410;-80
2022/09/02 21:58:53;;;;;;;6.88;3.25;;;;;;;;;;8495594;28;20112;-76
2022/09/02 22:03:02;;;;;;;4.82;2.70;;;;;;;;;;8495674;28;20474;-86
2022/09/02 22:07:18;;;;;;;5.80;3.00;;;;;;;;;;8489546;28;20371;-77
2022/09/02 22:11:31;;;;;;;4.93;2.80;;;;;;;;;;8477813;28;20063;-77
2022/09/02 22:15:58;;;;;;;3.97;2.40;;;;;;;;;;8497189;27;20089;-76
2022/09/02 22:20:04;;;;;;;5.55;3.10;;;;;;;;;;8501401;27;20051;-77
2022/09/02 22:24:07;;;;;;;5.43;2.80;;;;;;;;;;8500825;27;20050;-77
2022/09/02 22:28:15;;;;;;;4.95;2.75;;;;;;;;;;8500791;27;20047;-77
2022/09/02 22:32:20;;;;;;;6.28;2.90;;;;;;;;;;8500571;27;20043;-76
2022/09/02 22:36:33;;;;;;;4.05;2.78;;;;;;;;;;8500995;27;20439;-77
2022/09/02 22:40:41;;;;;;;5.43;2.70;;;;;;;;;;8500815;27;20490;-77
2022/09/02 22:53:36;;;;;;;4.13;2.80;;;;;;;;;;8499745;27;20483;-77
2022/09/02 22:57:50;;;;;;;4.95;2.60;;;;;;;;;;8500317;27;20667;-76
2022/09/02 23:02:07;;;;;;;4.75;2.35;;;;;;;;;;8500182;27;20063;-77
2022/09/02 23:06:18;;;;;;;4.53;2.40;;;;;;;;;;8499602;27;20054;-78
2022/09/02 23:10:25;;;;;;;4.50;2.57;;;;;;;;;;8499987;27;20038;-77
2022/09/02 23:14:37;;;;;;;4.15;2.50;;;;;;;;;;8499711;27;20150;-77
2022/09/02 23:18:52;;;;;;;5.57;2.55;;;;;;;;;;8498987;27;20055;-78
2022/09/02 23:23:12;;;;;;;4.50;2.60;;;;;;;;;;8499064;27;20117;-77
2022/09/02 23:27:25;;;;;;;7.00;2.83;;;;;;;;;;8499198;27;20069;-76
2022/09/02 23:31:39;;;;;;;6.25;2.80;;;;;;;;;;8483743;27;20035;-79
2022/09/02 23:35:50;;;;;;;4.03;2.55;;;;;;;;;;8494526;27;20107;-77
2022/09/02 23:40:03;;;;;;;6.50;2.47;;;;;;;;;;8498471;27;20465;-76
2022/09/02 23:44:07;;;;;;;4.22;2.38;;;;;;;;;;8498658;27;20478;-77
2022/09/02 23:48:30;;;;;;;4.15;2.70;;;;;;;;;;8498609;27;20051;-77
2022/09/02 23:52:44;;;;;;;6.13;2.70;;;;;;;;;;8497848;27;20054;-77
2022/09/02 23:57:01;;;;;;;3.15;2.10;;;;;;;;;;8497850;27;20063;-76
